Terminal Aerodrome Forecast
Issued by NWS

Home | Current Version | Previous Version | Text Only | Print | Product List | Glossary On
Versions: 1 2 3 4 5 6 7 8 9 10 11 12 13 14 15 16 17 18 19 20 21 22
000
FTUS42 KTBW 190900 AAA
TAFPGD
TAF AMD
KPGD 190903Z 1909/2006 VRB03KT 6SM BR BKN250
      TEMPO 1909/1913 1/2SM FG
     FM191400 08006KT P6SM FEW150 BKN250
     FM191900 24006KT P6SM FEW150 BKN250
     FM192300 VRB03KT P6SM FEW150 BKN250=

USA.gov is the U.S. government's official web portal to all federal, state and local government web resources and services.